Time,TemperatureF,DewpointF,PressureIn,WindDirection,WindDirectionDegrees,WindSpeedMPH,WindSpeedGustMPH,Humidity,HourlyPrecipIn,Conditions,Clouds,dailyrainin,SolarRadiationWatts/m^2,SoftwareType,DateUTC
2013-04-13 00:02:00,61.0,14.0,29.96,ESE,115,6.0,8.0,15,-99.99,,,-99.99,0.000000,,2013-04-13 06:02:00,
2013-04-13 00:12:00,61.0,14.0,29.96,SE,124,6.0,7.0,15,-99.99,,,-99.99,0.000000,,2013-04-13 06:12:00,
2013-04-13 00:24:00,61.0,14.0,29.96,SE,124,6.0,7.0,15,-99.99,,,-99.99,0.000000,,2013-04-13 06:24:00,
2013-04-13 00:34:00,61.0,14.0,29.97,SE,130,5.0,7.0,15,-99.99,,,-99.99,0.000000,,2013-04-13 06:34:00,
2013-04-13 00:46:00,61.0,14.0,29.97,SE,140,5.0,6.0,15,-99.99,,,-99.99,0.000000,,2013-04-13 06:46:00,
2013-04-13 00:55:00,61.0,14.0,29.97,SE,140,5.0,6.0,15,-99.99,,,-99.99,0.000000,,2013-04-13 06:55:00,
2013-04-13 01:05:00,61.0,14.0,29.97,East,86,5.0,7.0,15,-99.99,,,-99.99,0.000000,,2013-04-13 07:05:00,
2013-04-13 01:14:00,60.0,15.0,29.97,East,92,7.0,14.0,16,-99.99,,,-99.99,0.000000,,2013-04-13 07:14:00,
2013-04-13 01:24:00,60.0,15.0,29.97,East,92,7.0,14.0,16,-99.99,,,-99.99,0.000000,,2013-04-13 07:24:00,
2013-04-13 01:34:00,57.0,16.0,29.97,ESE,115,12.0,14.0,19,-99.99,,,-99.99,0.000000,,2013-04-13 07:34:00,
2013-04-13 01:44:00,57.0,15.0,29.97,ESE,109,11.0,14.0,18,-99.99,,,-99.99,0.000000,,2013-04-13 07:44:00,
2013-04-13 01:56:00,57.0,15.0,29.97,ESE,109,11.0,14.0,18,-99.99,,,-99.99,0.000000,,2013-04-13 07:56:00,
2013-04-13 02:06:00,58.0,15.0,29.98,East,93,9.0,12.0,18,-99.99,,,-99.99,0.000000,,2013-04-13 08:06:00,
2013-04-13 02:15:00,59.0,15.0,29.98,ENE,60,3.0,7.0,17,-99.99,,,-99.99,0.000000,,2013-04-13 08:15:00,
2013-04-13 02:25:00,59.0,15.0,29.98,ENE,60,3.0,7.0,17,-99.99,,,-99.99,0.000000,,2013-04-13 08:25:00,
2013-04-13 02:34:00,61.0,15.0,29.98,WSW,258,3.0,8.0,16,-99.99,,,-99.99,0.000000,,2013-04-13 08:34:00,
2013-04-13 02:45:00,61.0,14.0,29.97,SSE,165,1.0,3.0,16,-99.99,,,-99.99,0.000000,,2013-04-13 08:45:00,
2013-04-13 02:54:00,61.0,14.0,29.97,SSE,165,1.0,3.0,16,-99.99,,,-99.99,0.000000,,2013-04-13 08:54:00,
2013-04-13 03:05:00,60.0,17.0,29.97,WSW,253,3.0,9.0,18,-99.99,,,-99.99,0.000000,,2013-04-13 09:05:00,
2013-04-13 03:14:00,60.0,18.0,29.96,SW,236,9.0,12.0,19,-99.99,,,-99.99,0.000000,,2013-04-13 09:14:00,
2013-04-13 03:24:00,60.0,18.0,29.96,SW,236,9.0,12.0,19,-99.99,,,-99.99,0.000000,,2013-04-13 09:24:00,
2013-04-13 03:35:00,59.0,18.0,29.96,WSW,247,9.0,12.0,19,-99.99,,,-99.99,0.000000,,2013-04-13 09:35:00,
2013-04-13 03:49:00,59.0,18.0,29.96,West,268,7.0,12.0,19,-99.99,,,-99.99,0.000000,,2013-04-13 09:49:00,
2013-04-13 03:55:00,59.0,18.0,29.96,West,268,7.0,12.0,19,-99.99,,,-99.99,0.000000,,2013-04-13 09:55:00,
2013-04-13 04:05:00,59.0,18.0,29.96,West,262,6.0,8.0,19,-99.99,,,-99.99,0.000000,,2013-04-13 10:05:00,
2013-04-13 04:15:00,58.0,18.0,29.96,WNW,282,9.0,13.0,20,-99.99,,,-99.99,0.000000,,2013-04-13 10:15:00,
2013-04-13 04:24:00,58.0,18.0,29.96,WNW,282,9.0,13.0,20,-99.99,,,-99.99,0.000000,,2013-04-13 10:24:00,
2013-04-13 04:36:00,57.0,18.0,29.95,West,277,9.0,14.0,21,-99.99,,,-99.99,0.000000,,2013-04-13 10:36:00,
2013-04-13 04:45:00,56.0,18.0,29.95,WNW,293,14.0,18.0,22,-99.99,,,-99.99,0.000000,,2013-04-13 10:45:00,
2013-04-13 04:55:00,56.0,18.0,29.95,WNW,293,14.0,18.0,22,-99.99,,,-99.99,0.000000,,2013-04-13 10:55:00,
2013-04-13 05:05:00,53.0,17.0,29.95,West,276,11.0,16.0,24,-99.99,,,-99.99,0.000000,,2013-04-13 11:05:00,
2013-04-13 05:13:00,53.0,18.0,29.95,West,276,11.0,16.0,24,-99.99,,,-99.99,0.000000,,2013-04-13 11:13:00,
2013-04-13 05:24:00,53.0,18.0,29.95,West,276,11.0,16.0,24,-99.99,,,-99.99,0.000000,,2013-04-13 11:24:00,
2013-04-13 05:34:00,53.0,18.0,29.95,West,270,13.0,16.0,24,-99.99,,,-99.99,0.000000,,2013-04-13 11:34:00,
2013-04-13 05:44:00,54.0,18.0,29.95,West,275,12.0,15.0,23,-99.99,,,-99.99,0.000000,,2013-04-13 11:44:00,
2013-04-13 05:54:00,54.0,18.0,29.95,West,275,12.0,15.0,23,-99.99,,,-99.99,0.000000,,2013-04-13 11:54:00,
2013-04-13 06:08:00,55.0,18.0,29.94,WNW,292,15.0,22.0,23,-99.99,,,-99.99,0.000000,,2013-04-13 12:08:00,
2013-04-13 06:14:00,57.0,20.0,29.94,WNW,295,16.0,21.0,23,-99.99,,,-99.99,0.000000,,2013-04-13 12:14:00,
2013-04-13 06:35:00,57.0,20.0,29.94,WNW,301,15.0,19.0,23,-99.99,,,-99.99,0.000000,,2013-04-13 12:35:00,
2013-04-13 06:46:00,57.0,20.0,29.94,WNW,297,12.0,16.0,23,-99.99,,,-99.99,0.000000,,2013-04-13 12:46:00,
2013-04-13 06:55:00,57.0,20.0,29.94,WNW,297,12.0,16.0,23,-99.99,,,-99.99,0.000000,,2013-04-13 12:55:00,
2013-04-13 07:05:00,57.0,20.0,29.94,WNW,297,12.0,16.0,23,-99.99,,,-99.99,0.000000,,2013-04-13 13:05:00,
2013-04-13 07:15:00,58.0,20.0,29.95,NW,305,9.0,11.0,22,-99.99,,,-99.99,2.790000,,2013-04-13 13:15:00,
2013-04-13 07:34:00,59.0,20.0,29.95,WNW,297,10.0,13.0,22,-99.99,,,-99.99,13.250000,,2013-04-13 13:34:00,
2013-04-13 07:47:00,57.0,20.0,29.95,WNW,295,12.0,16.0,23,-99.99,,,-99.99,27.200001,,2013-04-13 13:47:00,
2013-04-13 07:56:00,57.0,20.0,29.95,WNW,295,12.0,16.0,23,-99.99,,,-99.99,27.200001,,2013-04-13 13:56:00,
2013-04-13 08:14:00,58.0,20.0,29.95,WNW,282,7.0,11.0,23,-99.99,,,-99.99,166.660004,,2013-04-13 14:14:00,
2013-04-13 08:23:00,58.0,20.0,29.95,WNW,282,7.0,11.0,23,-99.99,,,-99.99,166.660004,,2013-04-13 14:23:00,
2013-04-13 08:37:00,58.0,20.0,29.95,West,271,6.0,9.0,23,-99.99,,,-99.99,237.089996,,2013-04-13 14:37:00,
2013-04-13 08:45:00,58.0,21.0,29.95,West,270,7.0,9.0,23,-99.99,,,-99.99,290.790009,,2013-04-13 14:45:00,
2013-04-13 08:59:00,58.0,21.0,29.95,West,270,7.0,9.0,23,-99.99,,,-99.99,290.790009,,2013-04-13 14:59:00,
2013-04-13 09:04:00,58.0,20.0,29.95,West,279,11.0,16.0,22,-99.99,,,-99.99,347.970001,,2013-04-13 15:04:00,
2013-04-13 09:14:00,57.0,19.0,29.95,West,274,13.0,17.0,23,-99.99,,,-99.99,405.850006,,2013-04-13 15:14:00,
2013-04-13 09:29:00,57.0,19.0,29.95,West,274,13.0,17.0,23,-99.99,,,-99.99,405.850006,,2013-04-13 15:29:00,
2013-04-13 09:35:00,57.0,20.0,29.96,WNW,282,15.0,21.0,23,-99.99,,,-99.99,463.730011,,2013-04-13 15:35:00,
2013-04-13 09:44:00,59.0,21.0,29.97,West,280,16.0,20.0,23,-99.99,,,-99.99,516.719971,,2013-04-13 15:44:00,
2013-04-13 09:58:00,59.0,21.0,29.97,West,280,16.0,20.0,23,-99.99,,,-99.99,516.719971,,2013-04-13 15:58:00,
2013-04-13 10:05:00,60.0,22.0,29.97,WNW,287,15.0,20.0,22,-99.99,,,-99.99,575.299988,,2013-04-13 16:05:00,
2013-04-13 10:24:00,61.0,22.0,29.97,WNW,285,15.0,19.0,21,-99.99,,,-99.99,631.780029,,2013-04-13 16:24:00,
2013-04-13 10:35:00,62.0,22.0,29.97,WNW,286,16.0,21.0,21,-99.99,,,-99.99,686.179993,,2013-04-13 16:35:00,
2013-04-13 10:45:00,62.0,22.0,29.97,WNW,284,15.0,22.0,20,-99.99,,,-99.99,722.440002,,2013-04-13 16:45:00,
2013-04-13 10:55:00,62.0,22.0,29.97,WNW,284,15.0,22.0,20,-99.99,,,-99.99,722.440002,,2013-04-13 16:55:00,
2013-04-13 11:05:00,62.0,22.0,29.97,WNW,284,15.0,22.0,20,-99.99,,,-99.99,722.440002,,2013-04-13 17:05:00,
2013-04-13 11:20:00,63.0,21.0,29.97,West,277,13.0,20.0,19,-99.99,,,-99.99,799.140015,,2013-04-13 17:20:00,
2013-04-13 11:37:00,64.0,21.0,29.97,West,269,11.0,19.0,19,-99.99,,,-99.99,835.409973,,2013-04-13 17:37:00,
2013-04-13 11:44:00,65.0,21.0,29.96,West,263,13.0,18.0,18,-99.99,,,-99.99,866.789978,,2013-04-13 17:44:00,
2013-04-13 12:03:00,65.0,21.0,29.96,West,263,13.0,18.0,18,-99.99,,,-99.99,866.789978,,2013-04-13 18:03:00,
2013-04-13 12:15:00,66.0,19.0,29.95,West,268,10.0,17.0,16,-99.99,,,-99.99,922.570007,,2013-04-13 18:15:00,
2013-04-13 12:24:00,66.0,19.0,29.95,West,268,10.0,17.0,16,-99.99,,,-99.99,922.570007,,2013-04-13 18:24:00,
2013-04-13 12:32:00,66.0,18.0,29.95,WSW,256,12.0,19.0,15,-99.99,,,-99.99,945.580017,,2013-04-13 18:32:00,
2013-04-13 12:42:00,66.0,17.0,29.94,WSW,245,15.0,23.0,14,-99.99,,,-99.99,963.020020,,2013-04-13 18:42:00,
2013-04-13 12:53:00,66.0,17.0,29.94,WSW,245,15.0,23.0,14,-99.99,,,-99.99,963.020020,,2013-04-13 18:53:00,
2013-04-13 13:03:00,66.0,15.0,29.93,West,270,19.0,27.0,13,-99.99,,,-99.99,975.570007,,2013-04-13 19:03:00,
2013-04-13 13:12:00,67.0,16.0,29.92,West,270,17.0,28.0,13,-99.99,,,-99.99,984.630005,,2013-04-13 19:12:00,
2013-04-13 13:22:00,67.0,16.0,29.92,West,270,17.0,28.0,13,-99.99,,,-99.99,984.630005,,2013-04-13 19:22:00,
2013-04-13 13:32:00,67.0,17.0,29.92,West,273,14.0,27.0,14,-99.99,,,-99.99,988.119995,,2013-04-13 19:32:00,
2013-04-13 13:42:00,68.0,17.0,29.91,West,274,16.0,29.0,14,-99.99,,,-99.99,999.280029,,2013-04-13 19:42:00,
2013-04-13 13:53:00,68.0,17.0,29.91,West,274,16.0,29.0,14,-99.99,,,-99.99,999.280029,,2013-04-13 19:53:00,
2013-04-13 14:02:00,68.0,16.0,29.90,West,259,16.0,28.0,13,-99.99,,,-99.99,1002.070007,,2013-04-13 20:02:00,
2013-04-13 14:12:00,68.0,16.0,29.89,WSW,245,19.0,29.0,13,-99.99,,,-99.99,1035.540039,,2013-04-13 20:12:00,
2013-04-13 14:22:00,68.0,16.0,29.89,WSW,245,19.0,29.0,13,-99.99,,,-99.99,1035.540039,,2013-04-13 20:22:00,
2013-04-13 14:32:00,69.0,16.0,29.89,WSW,241,18.0,31.0,13,-99.99,,,-99.99,1011.830017,,2013-04-13 20:32:00,
2013-04-13 14:42:00,69.0,16.0,29.88,WSW,245,16.0,27.0,13,-99.99,,,-99.99,539.039978,,2013-04-13 20:42:00,
2013-04-13 14:52:00,69.0,16.0,29.88,WSW,245,16.0,27.0,13,-99.99,,,-99.99,539.039978,,2013-04-13 20:52:00,
2013-04-13 15:02:00,69.0,17.0,29.87,WSW,248,22.0,30.0,13,-99.99,,,-99.99,805.419983,,2013-04-13 21:02:00,
2013-04-13 15:12:00,71.0,17.0,29.87,WSW,243,19.0,31.0,12,-99.99,,,-99.99,965.109985,,2013-04-13 21:12:00,
2013-04-13 15:22:00,71.0,17.0,29.87,WSW,243,19.0,31.0,12,-99.99,,,-99.99,965.109985,,2013-04-13 21:22:00,
2013-04-13 15:32:00,69.0,16.0,29.86,WSW,250,24.0,35.0,12,-99.99,,,-99.99,714.070007,,2013-04-13 21:32:00,
2013-04-13 15:43:00,68.0,15.0,29.85,WSW,241,19.0,28.0,12,-99.99,,,-99.99,423.980011,,2013-04-13 21:43:00,
2013-04-13 15:53:00,68.0,15.0,29.85,WSW,241,19.0,28.0,12,-99.99,,,-99.99,423.980011,,2013-04-13 21:53:00,
2013-04-13 16:03:00,71.0,15.0,29.84,West,261,26.0,40.0,11,-99.99,,,-99.99,891.190002,,2013-04-13 22:03:00,
2013-04-13 16:12:00,70.0,15.0,29.83,WSW,255,28.0,39.0,11,-99.99,,,-99.99,643.640015,,2013-04-13 22:12:00,
2013-04-13 16:22:00,70.0,15.0,29.83,WSW,255,28.0,39.0,11,-99.99,,,-99.99,643.640015,,2013-04-13 22:22:00,
2013-04-13 16:33:00,70.0,15.0,29.83,West,259,30.0,49.0,11,-99.99,,,-99.99,670.830017,,2013-04-13 22:33:00,
2013-04-13 16:42:00,70.0,15.0,29.82,WSW,255,29.0,44.0,11,-99.99,,,-99.99,688.270020,,2013-04-13 22:42:00,
2013-04-13 16:53:00,70.0,15.0,29.82,WSW,255,29.0,44.0,11,-99.99,,,-99.99,688.270020,,2013-04-13 22:53:00,
2013-04-13 17:02:00,69.0,14.0,29.81,WSW,254,32.0,46.0,11,-99.99,,,-99.99,350.059998,,2013-04-13 23:02:00,
2013-04-13 17:12:00,70.0,14.0,29.81,WSW,250,32.0,48.0,11,-99.99,,,-99.99,583.669983,,2013-04-13 23:12:00,
2013-04-13 17:22:00,70.0,14.0,29.81,WSW,250,32.0,48.0,11,-99.99,,,-99.99,583.669983,,2013-04-13 23:22:00,
2013-04-13 17:32:00,70.0,14.0,29.80,WSW,246,34.0,49.0,11,-99.99,,,-99.99,543.919983,,2013-04-13 23:32:00,
2013-04-13 17:42:00,70.0,14.0,29.80,WSW,243,29.0,43.0,11,-99.99,,,-99.99,387.019989,,2013-04-13 23:42:00,
2013-04-13 17:53:00,70.0,14.0,29.80,WSW,243,29.0,43.0,11,-99.99,,,-99.99,387.019989,,2013-04-13 23:53:00,
2013-04-13 18:02:00,70.0,15.0,29.80,WSW,256,32.0,48.0,12,-99.99,,,-99.99,184.100006,,2013-04-14 00:02:00,
2013-04-13 18:12:00,69.0,16.0,29.80,WSW,247,32.0,45.0,12,-99.99,,,-99.99,214.779999,,2013-04-14 00:12:00,
2013-04-13 18:22:00,69.0,16.0,29.80,WSW,247,32.0,45.0,12,-99.99,,,-99.99,214.779999,,2013-04-14 00:22:00,
2013-04-13 18:32:00,70.0,16.0,29.79,West,259,36.0,55.0,12,-99.99,,,-99.99,209.899994,,2013-04-14 00:32:00,
2013-04-13 18:42:00,69.0,14.0,29.78,WSW,250,40.0,53.0,11,-99.99,,,-99.99,170.850006,,2013-04-14 00:42:00,
2013-04-13 18:52:00,69.0,14.0,29.78,WSW,250,40.0,53.0,11,-99.99,,,-99.99,170.850006,,2013-04-14 00:52:00,
2013-04-13 19:02:00,69.0,14.0,29.78,WSW,257,39.0,52.0,11,-99.99,,,-99.99,73.919998,,2013-04-14 01:02:00,
2013-04-13 19:12:00,68.0,13.0,29.77,WSW,254,40.0,54.0,11,-99.99,,,-99.99,83.680000,,2013-04-14 01:12:00,
2013-04-13 19:22:00,68.0,13.0,29.77,WSW,254,40.0,54.0,11,-99.99,,,-99.99,83.680000,,2013-04-14 01:22:00,
2013-04-13 19:32:00,68.0,13.0,29.78,WSW,256,41.0,50.0,11,-99.99,,,-99.99,46.720001,,2013-04-14 01:32:00,
2013-04-13 19:42:00,67.0,13.0,29.77,WSW,254,42.0,51.0,12,-99.99,,,-99.99,32.080002,,2013-04-14 01:42:00,
2013-04-13 19:53:00,67.0,13.0,29.77,WSW,254,42.0,51.0,12,-99.99,,,-99.99,32.080002,,2013-04-14 01:53:00,
2013-04-13 20:02:00,66.0,14.0,29.78,WSW,257,41.0,53.0,12,-99.99,,,-99.99,12.550000,,2013-04-14 02:02:00,
2013-04-13 20:12:00,66.0,13.0,29.78,WSW,258,41.0,51.0,13,-99.99,,,-99.99,2.790000,,2013-04-14 02:12:00,
2013-04-13 20:22:00,66.0,13.0,29.78,WSW,258,41.0,51.0,13,-99.99,,,-99.99,2.790000,,2013-04-14 02:22:00,
2013-04-13 20:32:00,65.0,13.0,29.79,West,261,38.0,46.0,13,-99.99,,,-99.99,0.000000,,2013-04-14 02:32:00,
2013-04-13 20:42:00,64.0,14.0,29.80,West,259,37.0,45.0,13,-99.99,,,-99.99,0.000000,,2013-04-14 02:42:00,
2013-04-13 20:53:00,64.0,14.0,29.80,West,259,37.0,45.0,13,-99.99,,,-99.99,0.000000,,2013-04-14 02:53:00,
2013-04-13 21:02:00,64.0,14.0,29.81,WSW,257,34.0,42.0,13,-99.99,,,-99.99,0.000000,,2013-04-14 03:02:00,
2013-04-13 21:12:00,63.0,14.0,29.81,WSW,256,32.0,39.0,14,-99.99,,,-99.99,0.000000,,2013-04-14 03:12:00,
2013-04-13 21:22:00,63.0,14.0,29.81,WSW,256,32.0,39.0,14,-99.99,,,-99.99,0.000000,,2013-04-14 03:22:00,
2013-04-13 21:33:00,63.0,14.0,29.82,WSW,252,33.0,41.0,14,-99.99,,,-99.99,0.000000,,2013-04-14 03:33:00,
2013-04-13 21:42:00,63.0,14.0,29.82,WSW,251,33.0,41.0,14,-99.99,,,-99.99,0.000000,,2013-04-14 03:42:00,
2013-04-13 21:53:00,63.0,14.0,29.82,WSW,251,33.0,41.0,14,-99.99,,,-99.99,0.000000,,2013-04-14 03:53:00,
2013-04-13 22:02:00,63.0,14.0,29.83,WSW,255,30.0,36.0,14,-99.99,,,-99.99,0.000000,,2013-04-14 04:02:00,
2013-04-13 22:12:00,62.0,14.0,29.83,WSW,253,32.0,41.0,14,-99.99,,,-99.99,0.000000,,2013-04-14 04:12:00,
2013-04-13 22:23:00,62.0,14.0,29.83,WSW,253,32.0,41.0,14,-99.99,,,-99.99,0.000000,,2013-04-14 04:23:00,
2013-04-13 22:32:00,62.0,14.0,29.83,WSW,256,33.0,39.0,15,-99.99,,,-99.99,0.000000,,2013-04-14 04:32:00,
2013-04-13 22:43:00,62.0,14.0,29.83,WSW,252,34.0,42.0,15,-99.99,,,-99.99,0.000000,,2013-04-14 04:43:00,
2013-04-13 22:52:00,62.0,14.0,29.83,WSW,252,34.0,42.0,15,-99.99,,,-99.99,0.000000,,2013-04-14 04:52:00,
2013-04-13 23:02:00,62.0,14.0,29.82,WSW,252,35.0,43.0,15,-99.99,,,-99.99,0.000000,,2013-04-14 05:02:00,
2013-04-13 23:12:00,62.0,14.0,29.81,WSW,251,37.0,46.0,15,-99.99,,,-99.99,0.000000,,2013-04-14 05:12:00,
2013-04-13 23:22:00,62.0,14.0,29.81,WSW,251,37.0,46.0,15,-99.99,,,-99.99,0.000000,,2013-04-14 05:22:00,
2013-04-13 23:32:00,62.0,14.0,29.80,WSW,256,39.0,45.0,15,-99.99,,,-99.99,0.000000,,2013-04-14 05:32:00,
2013-04-13 23:42:00,61.0,14.0,29.79,WSW,256,42.0,50.0,15,-99.99,,,-99.99,0.000000,,2013-04-14 05:42:00,
2013-04-13 23:52:00,61.0,14.0,29.79,WSW,256,42.0,50.0,15,-99.99,,,-99.99,0.000000,,2013-04-14 05:52:00,